createdAt,value
2023-05-18T00:02:08.637Z,97014.88
2023-05-18T00:04:36.958Z,97022.66
2023-05-18T00:07:05.338Z,97004.94
2023-05-18T00:09:35.233Z,97000.28
2023-05-18T00:12:04.180Z,97024.81
2023-05-18T00:14:31.668Z,96984.91
2023-05-18T00:17:01.972Z,96989.88
2023-05-18T00:19:30.355Z,97004.19
2023-05-18T00:21:57.790Z,97013.34
2023-05-18T00:24:25.186Z,97025.44
2023-05-18T00:26:52.039Z,96988.06
2023-05-18T00:29:19.134Z,96999.75
2023-05-18T00:31:47.021Z,96988.25
2023-05-18T00:34:15.431Z,97006.25
2023-05-18T00:36:42.992Z,96967.09
2023-05-18T00:39:10.527Z,96983.31
2023-05-18T00:41:37.729Z,97005.03
2023-05-18T00:44:05.230Z,97016.03
2023-05-18T00:46:32.975Z,96999.88
2023-05-18T00:49:02.296Z,96981.34
2023-05-18T00:51:30.181Z,96997.25
2023-05-18T00:54:00.197Z,97009.78
2023-05-18T00:56:28.598Z,96967.72
2023-05-18T00:58:57.539Z,96987.84
2023-05-18T01:01:30.341Z,96980.22
2023-05-18T01:04:02.513Z,97008.19
2023-05-18T01:06:41.398Z,97014.94
2023-05-18T01:09:10.697Z,96989.09
2023-05-18T01:12:06.211Z,97005.56
2023-05-18T01:14:50.032Z,97005.63
2023-05-18T01:17:50.855Z,96998.84
2023-05-18T01:20:46.621Z,96991.00
2023-05-18T01:23:35.878Z,96994.41
2023-05-18T01:26:17.354Z,96983.72
2023-05-18T01:28:47.171Z,96979.78
2023-05-18T01:31:16.453Z,96998.88
2023-05-18T01:33:46.590Z,96970.38
2023-05-18T01:36:13.806Z,96986.31
2023-05-18T01:38:43.861Z,96975.34
2023-05-18T01:41:23.691Z,97005.41
2023-05-18T01:44:19.108Z,97007.50
2023-05-18T01:47:06.627Z,96997.53
2023-05-18T01:49:43.406Z,96971.19
2023-05-18T01:52:41.207Z,96964.59
2023-05-18T01:55:10.281Z,96957.81
2023-05-18T01:57:39.593Z,96981.31
2023-05-18T02:00:09.361Z,96939.50
2023-05-18T02:02:47.277Z,96962.72
2023-05-18T02:05:16.618Z,96955.47
2023-05-18T02:07:47.726Z,96975.88
2023-05-18T02:10:15.192Z,96982.91
2023-05-18T02:12:42.327Z,96959.41
2023-05-18T02:15:10.028Z,96947.91
2023-05-18T02:17:39.824Z,96950.53
2023-05-18T02:20:08.066Z,96964.63
2023-05-18T02:22:36.317Z,96951.53
2023-05-18T02:25:05.297Z,96972.72
2023-05-18T02:27:33.966Z,96931.66
2023-05-18T02:30:01.184Z,96941.56
2023-05-18T02:32:28.178Z,96973.22
2023-05-18T02:34:55.193Z,96972.41
2023-05-18T02:37:23.416Z,96970.63
2023-05-18T02:39:50.727Z,96972.41
2023-05-18T02:42:17.633Z,96953.09
2023-05-18T02:44:44.778Z,96965.06
2023-05-18T02:47:15.063Z,96979.97
2023-05-18T02:49:42.076Z,96967.16
2023-05-18T02:52:09.169Z,96975.25
2023-05-18T02:54:36.190Z,96975.81
2023-05-18T02:57:04.871Z,96951.44
2023-05-18T03:00:10.324Z,96983.03
2023-05-18T03:02:39.131Z,96977.59
2023-05-18T03:05:07.398Z,96961.31
2023-05-18T03:07:34.355Z,96958.56
2023-05-18T03:10:03.836Z,96981.38
2023-05-18T03:12:32.083Z,96982.72
2023-05-18T03:14:59.420Z,96959.78
2023-05-18T03:17:26.516Z,96970.38
2023-05-18T03:19:53.653Z,96954.03
2023-05-18T03:22:20.745Z,96950.03
2023-05-18T03:24:51.341Z,96966.50
2023-05-18T03:27:20.424Z,96983.97
2023-05-18T03:29:47.367Z,96974.53
2023-05-18T03:32:14.298Z,96983.78
2023-05-18T03:34:41.367Z,96964.66
2023-05-18T03:37:08.619Z,96989.78
2023-05-18T03:39:35.708Z,96968.91
2023-05-18T03:42:02.971Z,96988.34
2023-05-18T03:44:30.213Z,96967.44
2023-05-18T03:46:57.527Z,96995.72
2023-05-18T03:49:24.421Z,96967.81
2023-05-18T03:51:54.594Z,97004.56
2023-05-18T03:54:21.747Z,96978.38
2023-05-18T03:56:48.808Z,96995.13
2023-05-18T03:59:17.136Z,96996.63
2023-05-18T04:01:44.653Z,96997.94
2023-05-18T04:04:18.493Z,96996.97
2023-05-18T04:06:46.949Z,96995.56
2023-05-18T04:09:17.477Z,96996.69
2023-05-18T04:11:44.906Z,96978.09
2023-05-18T04:14:12.592Z,97003.84
2023-05-18T04:16:39.530Z,96974.84
2023-05-18T04:19:08.946Z,96982.69
2023-05-18T04:21:36.407Z,96979.63
2023-05-18T04:24:07.672Z,97006.81
2023-05-18T04:26:36.802Z,96977.34
2023-05-18T04:29:03.966Z,97008.69
2023-05-18T04:31:31.012Z,96999.59
2023-05-18T04:33:59.063Z,96983.09
2023-05-18T04:36:26.343Z,96983.13
2023-05-18T04:38:54.317Z,97010.84
2023-05-18T04:41:21.243Z,96972.19
2023-05-18T04:43:48.817Z,96995.44
2023-05-18T04:46:17.154Z,96945.81
2023-05-18T04:48:45.264Z,96986.59
2023-05-18T04:51:12.185Z,97016.63
2023-05-18T04:53:39.277Z,97006.16
2023-05-18T04:56:06.685Z,97009.28
2023-05-18T04:58:34.697Z,96995.38
2023-05-18T05:01:01.803Z,97024.88
2023-05-18T05:03:29.036Z,97022.69
2023-05-18T05:05:56.339Z,97011.41
2023-05-18T05:08:24.492Z,96998.06
2023-05-18T05:10:51.533Z,97016.78
2023-05-18T05:13:18.401Z,97014.69
2023-05-18T05:15:45.323Z,96972.31
2023-05-18T05:18:12.351Z,97014.47
2023-05-18T05:20:39.491Z,97051.22
2023-05-18T05:23:06.540Z,97034.09
2023-05-18T05:25:37.149Z,97034.28
2023-05-18T05:28:04.306Z,97033.44
2023-05-18T05:30:32.087Z,97027.06
2023-05-18T05:32:59.273Z,97066.28
2023-05-18T05:35:27.008Z,97065.06
2023-05-18T05:37:54.118Z,97050.00
2023-05-18T05:40:21.923Z,97022.59
2023-05-18T05:42:49.968Z,97056.38
2023-05-18T05:45:17.445Z,97064.81
2023-05-18T05:47:54.964Z,97047.00
2023-05-18T05:50:23.001Z,97056.91
2023-05-18T05:52:51.593Z,97045.59
2023-05-18T05:55:19.666Z,97046.34
2023-05-18T05:57:46.598Z,97009.50
2023-05-18T06:00:13.947Z,97058.53
2023-05-18T06:02:59.049Z,97047.53
2023-05-18T06:05:35.346Z,97044.31
2023-05-18T06:08:03.429Z,97044.34
2023-05-18T06:10:31.403Z,97061.47
2023-05-18T06:12:58.798Z,97069.97
2023-05-18T06:15:33.560Z,97061.53
2023-05-18T06:18:00.799Z,97074.47
2023-05-18T06:20:27.945Z,97081.53
2023-05-18T06:22:55.290Z,97062.34
2023-05-18T06:25:45.066Z,97060.88
2023-05-18T06:28:25.528Z,97058.69
2023-05-18T06:31:00.623Z,97056.38
2023-05-18T06:33:37.438Z,97040.75
2023-05-18T06:36:04.657Z,97050.22
2023-05-18T06:38:31.626Z,97080.00
2023-05-18T06:40:58.718Z,97069.13
2023-05-18T06:43:27.138Z,97080.47
2023-05-18T06:46:04.500Z,97100.94
2023-05-18T06:48:36.896Z,97073.09
2023-05-18T06:51:04.926Z,97009.09
2023-05-18T06:53:32.287Z,97058.38
2023-05-18T06:56:00.212Z,97096.66
2023-05-18T06:58:27.748Z,97077.56
2023-05-18T07:00:56.352Z,97093.00
2023-05-18T07:03:23.500Z,97096.13
2023-05-18T07:05:50.489Z,97090.28
2023-05-18T07:08:17.510Z,97063.09
2023-05-18T07:10:44.513Z,97097.28
2023-05-18T07:13:11.525Z,97083.03
2023-05-18T07:15:38.977Z,97087.78
2023-05-18T07:18:06.364Z,97068.38
2023-05-18T07:20:33.347Z,97078.66
2023-05-18T07:23:00.260Z,97083.06
2023-05-18T07:25:27.816Z,97092.72
2023-05-18T07:27:55.420Z,97091.47
2023-05-18T07:30:23.298Z,97086.81
2023-05-18T07:32:51.657Z,97073.88
2023-05-18T07:35:22.309Z,97085.53
2023-05-18T07:37:52.329Z,97081.56
2023-05-18T07:40:19.375Z,97092.81
2023-05-18T07:42:46.586Z,97088.94
2023-05-18T07:45:13.877Z,97101.47
2023-05-18T07:47:41.148Z,97073.59
2023-05-18T07:50:08.781Z,97089.44
2023-05-18T07:52:35.792Z,97054.84
2023-05-18T07:55:03.373Z,97051.94
2023-05-18T07:57:31.224Z,97072.19
2023-05-18T07:59:58.116Z,97095.00
2023-05-18T08:02:25.167Z,97060.63
2023-05-18T08:04:52.295Z,97074.16
2023-05-18T08:07:19.167Z,97061.06
2023-05-18T08:09:46.151Z,97095.53
2023-05-18T08:12:13.094Z,97091.97
2023-05-18T08:14:40.027Z,97092.81
2023-05-18T08:17:07.839Z,97081.03
2023-05-18T08:19:34.818Z,97084.47
2023-05-18T08:22:02.486Z,97095.69
2023-05-18T08:24:29.389Z,97099.69
2023-05-18T08:26:57.615Z,97100.06
2023-05-18T08:29:24.542Z,97083.16
2023-05-18T08:31:52.163Z,97070.53
2023-05-18T08:34:19.198Z,97084.19
2023-05-18T08:36:46.728Z,97062.50
2023-05-18T08:39:13.672Z,97060.78
2023-05-18T08:42:09.994Z,97094.63
2023-05-18T08:44:55.972Z,97088.00
2023-05-18T08:47:26.929Z,97101.28
2023-05-18T08:49:56.558Z,97089.91
2023-05-18T08:52:28.852Z,97089.78
2023-05-18T08:54:57.746Z,97082.53
2023-05-18T08:57:24.969Z,97092.19
2023-05-18T08:59:54.660Z,97086.84
2023-05-18T09:02:21.884Z,97051.44
2023-05-18T09:04:49.086Z,97066.13
2023-05-18T09:07:16.460Z,97089.31
2023-05-18T09:09:44.538Z,97080.00
2023-05-18T09:12:12.005Z,97072.78
2023-05-18T09:14:41.830Z,97082.38
2023-05-18T09:17:09.683Z,97069.09
2023-05-18T09:19:36.749Z,97044.31
2023-05-18T09:22:04.366Z,97053.59
2023-05-18T09:24:31.669Z,97085.13
2023-05-18T09:26:59.103Z,97059.53
2023-05-18T09:29:26.011Z,97088.72
2023-05-18T09:31:54.525Z,97058.66
2023-05-18T09:34:21.882Z,97068.56
2023-05-18T09:36:57.279Z,97075.31
2023-05-18T09:39:24.233Z,97091.28
2023-05-18T09:41:57.606Z,97060.22
2023-05-18T09:44:37.195Z,97080.88
2023-05-18T09:47:12.462Z,97095.34
2023-05-18T09:49:40.856Z,97102.94
2023-05-18T09:52:09.379Z,97094.81
2023-05-18T09:54:37.475Z,97069.81
2023-05-18T09:59:36.901Z,97089.09
2023-05-18T10:02:09.238Z,97086.75
2023-05-18T10:04:41.386Z,97086.06
2023-05-18T10:07:17.006Z,97089.53
2023-05-18T10:09:45.915Z,97078.44
2023-05-18T10:12:21.451Z,97081.69
2023-05-18T10:14:49.620Z,97077.31
2023-05-18T10:17:17.785Z,97073.25
2023-05-18T10:19:46.116Z,97064.22
2023-05-18T10:22:16.890Z,97077.47
2023-05-18T10:24:46.423Z,97070.34
2023-05-18T10:27:17.866Z,97073.22
2023-05-18T10:29:45.326Z,97069.50
2023-05-18T10:32:13.233Z,97077.16
2023-05-18T10:34:42.041Z,97070.41
2023-05-18T10:37:12.092Z,97080.09
2023-05-18T10:39:41.447Z,97072.25
2023-05-18T10:42:10.760Z,97077.19
2023-05-18T10:44:38.382Z,97077.47
2023-05-18T10:47:08.327Z,97066.94
2023-05-18T10:49:36.608Z,97071.75
2023-05-18T10:52:04.205Z,97040.56
2023-05-18T10:54:31.444Z,97058.25
2023-05-18T10:56:58.407Z,97058.94
2023-05-18T10:59:25.389Z,97058.72
2023-05-18T11:01:54.530Z,97040.31
2023-05-18T11:04:27.220Z,97062.50
2023-05-18T11:06:57.637Z,97060.84
2023-05-18T11:09:25.116Z,97056.94
2023-05-18T11:11:59.562Z,97062.41
2023-05-18T11:14:28.776Z,97005.03
2023-05-18T11:17:25.822Z,97046.75
2023-05-18T11:20:13.229Z,97048.81
2023-05-18T11:22:43.089Z,97050.41
2023-05-18T11:25:10.472Z,97041.06
2023-05-18T11:27:38.536Z,97043.84
2023-05-18T11:30:26.309Z,97048.66
2023-05-18T11:32:53.293Z,97046.88
2023-05-18T11:35:24.386Z,97029.88
2023-05-18T11:37:51.363Z,97017.84
2023-05-18T11:40:47.574Z,97037.25
2023-05-18T11:43:22.728Z,97040.19
2023-05-18T11:45:59.300Z,97040.47
2023-05-18T11:48:30.350Z,97029.78
2023-05-18T11:50:57.484Z,97031.56
2023-05-18T11:53:30.179Z,97046.06
2023-05-18T11:55:57.109Z,97018.34
2023-05-18T11:58:27.231Z,97018.66
2023-05-18T12:00:56.134Z,97041.03
2023-05-18T12:03:26.894Z,97020.41
2023-05-18T12:05:57.975Z,97008.69
2023-05-18T12:08:29.803Z,97020.19
2023-05-18T12:10:57.593Z,97031.91
2023-05-18T12:13:24.702Z,97021.47
2023-05-18T12:15:52.168Z,97022.34
2023-05-18T12:18:19.509Z,97026.59
2023-05-18T12:20:48.149Z,97007.72
2023-05-18T12:23:15.075Z,97024.34
2023-05-18T12:25:42.228Z,97006.00
2023-05-18T12:28:09.142Z,96995.44
2023-05-18T12:30:36.777Z,97024.75
2023-05-18T12:33:04.371Z,97014.09
2023-05-18T12:35:32.385Z,96998.59
2023-05-18T12:38:03.161Z,97007.03
2023-05-18T12:40:44.740Z,97011.09
2023-05-18T12:43:12.176Z,97023.53
2023-05-18T12:45:39.276Z,97021.97
2023-05-18T12:48:12.283Z,97030.84
2023-05-18T12:50:50.822Z,97017.47
2023-05-18T12:53:18.612Z,97025.94
2023-05-18T12:55:45.636Z,97030.53
2023-05-18T12:58:16.890Z,97003.16
2023-05-18T13:00:45.754Z,96997.47
2023-05-18T13:03:17.848Z,97001.38
2023-05-18T13:05:47.511Z,96999.72
2023-05-18T13:08:22.381Z,97010.53
2023-05-18T13:10:58.388Z,96990.94
2023-05-18T13:13:35.180Z,96981.47
2023-05-18T13:16:02.238Z,97008.59
2023-05-18T13:18:29.512Z,96993.56
2023-05-18T13:20:58.816Z,96999.28
2023-05-18T13:23:30.295Z,96998.66
2023-05-18T13:25:58.933Z,97000.66
2023-05-18T13:28:27.479Z,97003.00
2023-05-18T13:30:54.462Z,97008.47
2023-05-18T13:33:21.765Z,96992.53
2023-05-18T13:35:50.119Z,96987.66
2023-05-18T13:38:17.323Z,96988.53
2023-05-18T13:40:44.279Z,96978.75
2023-05-18T13:43:13.545Z,96988.88
2023-05-18T13:45:41.381Z,96992.06
2023-05-18T13:48:10.460Z,96928.03
2023-05-18T13:50:38.703Z,96963.59
2023-05-18T13:53:05.651Z,96986.53
2023-05-18T13:55:33.807Z,96987.53
2023-05-18T13:58:01.143Z,96993.53
2023-05-18T14:00:28.580Z,96980.72
2023-05-18T14:02:56.880Z,96989.06
2023-05-18T14:05:24.464Z,96977.91
2023-05-18T14:07:54.784Z,96985.97
2023-05-18T14:10:21.892Z,96971.72
2023-05-18T14:12:49.281Z,96995.28
2023-05-18T14:15:16.500Z,96988.59
2023-05-18T14:17:43.979Z,96990.72
2023-05-18T14:20:12.520Z,96982.75
2023-05-18T14:22:39.833Z,96962.22
2023-05-18T14:25:07.145Z,96987.16
2023-05-18T14:27:34.389Z,96963.34
2023-05-18T14:30:01.629Z,96912.47
2023-05-18T14:32:28.716Z,96955.13
2023-05-18T14:34:58.241Z,96965.38
2023-05-18T14:37:25.864Z,96959.81
2023-05-18T14:39:52.992Z,96934.97
2023-05-18T14:42:20.126Z,96969.06
2023-05-18T14:44:47.318Z,96967.28
2023-05-18T14:47:18.121Z,96959.22
2023-05-18T14:49:45.049Z,96969.00
2023-05-18T14:52:12.003Z,96966.22
2023-05-18T14:54:38.937Z,96967.13
2023-05-18T14:57:05.944Z,96939.84
2023-05-18T14:59:32.883Z,96942.19
2023-05-18T15:01:59.815Z,96936.09
2023-05-18T15:04:26.722Z,96970.34
2023-05-18T15:06:53.601Z,96948.75
2023-05-18T15:09:20.648Z,96941.00
2023-05-18T15:11:47.575Z,96948.38
2023-05-18T15:14:14.575Z,96964.56
2023-05-18T15:16:41.632Z,96947.63
2023-05-18T15:19:08.616Z,96927.78
2023-05-18T15:21:35.670Z,96936.53
2023-05-18T15:24:02.633Z,96914.84
2023-05-18T15:26:29.763Z,96937.78
2023-05-18T15:28:56.679Z,96931.94
2023-05-18T15:31:23.658Z,96929.31
2023-05-18T15:33:50.969Z,96930.75
2023-05-18T15:36:17.969Z,96936.16
2023-05-18T15:38:45.168Z,96940.63
2023-05-18T15:41:12.094Z,96937.53
2023-05-18T15:43:39.509Z,96939.47
2023-05-18T15:46:06.450Z,96940.38
2023-05-18T15:48:33.658Z,96923.00
2023-05-18T15:51:00.585Z,96936.34
2023-05-18T15:53:27.467Z,96925.69
2023-05-18T15:55:58.765Z,96933.53
2023-05-18T15:58:27.065Z,96900.84
2023-05-18T16:00:54.278Z,96926.66
2023-05-18T16:03:21.614Z,96922.09
2023-05-18T16:05:48.736Z,96905.88
2023-05-18T16:08:15.705Z,96894.00
2023-05-18T16:10:42.893Z,96894.06
2023-05-18T16:13:09.890Z,96918.22
2023-05-18T16:15:36.964Z,96913.16
2023-05-18T16:18:04.187Z,96901.59
2023-05-18T16:20:31.381Z,96913.38
2023-05-18T16:22:58.538Z,96895.97
2023-05-18T16:25:26.660Z,96908.84
2023-05-18T16:27:53.680Z,96912.03
2023-05-18T16:30:20.766Z,96886.44
2023-05-18T16:32:47.916Z,96916.91
2023-05-18T16:35:15.083Z,96911.50
2023-05-18T16:37:42.159Z,96883.34
2023-05-18T16:40:09.452Z,96905.50
2023-05-18T16:42:39.358Z,96886.97
2023-05-18T16:45:06.624Z,96907.81
2023-05-18T16:47:33.649Z,96904.72
2023-05-18T16:50:00.916Z,96908.34
2023-05-18T16:52:27.997Z,96889.97
2023-05-18T16:54:54.997Z,96891.69
2023-05-18T16:57:22.363Z,96890.66
2023-05-18T16:59:49.570Z,96907.38
2023-05-18T17:02:18.208Z,96905.41
2023-05-18T17:04:50.172Z,96872.28
2023-05-18T17:07:17.465Z,96903.16
2023-05-18T17:09:44.999Z,96899.97
2023-05-18T17:12:12.468Z,96902.25
2023-05-18T17:14:39.922Z,96906.91
2023-05-18T17:17:07.647Z,96893.31
2023-05-18T17:19:39.156Z,96892.78
2023-05-18T17:22:06.548Z,96919.41
2023-05-18T17:24:33.471Z,96924.06
2023-05-18T17:27:00.562Z,96915.75
2023-05-18T17:29:28.232Z,96914.97
2023-05-18T17:31:55.895Z,96894.94
2023-05-18T17:34:23.369Z,96914.75
2023-05-18T17:36:50.389Z,96915.75
2023-05-18T17:39:17.405Z,96893.38
2023-05-18T17:41:44.662Z,96912.41
2023-05-18T17:44:16.478Z,96918.78
2023-05-18T17:46:46.006Z,96925.75
2023-05-18T17:49:16.313Z,96933.56
2023-05-18T17:51:43.600Z,96905.75
2023-05-18T17:54:11.361Z,96927.69
2023-05-18T17:56:38.605Z,96941.34
2023-05-18T17:59:06.536Z,96940.00
2023-05-18T18:01:34.119Z,96910.44
2023-05-18T18:04:01.206Z,96935.44
2023-05-18T18:06:28.616Z,96933.63
2023-05-18T18:08:57.847Z,96915.13
2023-05-18T18:11:26.513Z,96938.13
2023-05-18T18:13:54.146Z,96906.25
2023-05-18T18:16:22.094Z,96933.03
2023-05-18T18:18:49.744Z,96937.59
2023-05-18T18:21:16.836Z,96936.13
2023-05-18T18:23:46.413Z,96940.22
2023-05-18T18:26:13.386Z,96922.88
2023-05-18T18:28:43.494Z,96936.19
2023-05-18T18:31:10.504Z,96938.31
2023-05-18T18:33:37.590Z,96938.38
2023-05-18T18:36:05.917Z,96934.09
2023-05-18T18:38:34.173Z,96947.16
2023-05-18T18:41:04.521Z,96931.22
2023-05-18T18:43:31.842Z,96932.31
2023-05-18T18:45:59.491Z,96936.50
2023-05-18T18:48:27.133Z,96951.44
2023-05-18T18:50:54.372Z,96936.41
2023-05-18T18:53:21.662Z,96947.13
2023-05-18T18:55:48.637Z,96950.56
2023-05-18T18:58:16.042Z,96948.56
2023-05-18T19:00:43.192Z,96960.44
2023-05-18T19:03:10.370Z,96926.66
2023-05-18T19:05:37.702Z,96934.78
2023-05-18T19:08:04.954Z,96961.56
2023-05-18T19:10:33.162Z,96967.94
2023-05-18T19:13:05.218Z,96979.56
2023-05-18T19:15:35.615Z,96950.69
2023-05-18T19:18:03.205Z,96979.47
2023-05-18T19:20:30.312Z,96965.66
2023-05-18T19:22:57.417Z,96968.00
2023-05-18T19:25:27.154Z,96962.38
2023-05-18T19:27:54.456Z,96985.44
2023-05-18T19:30:22.718Z,96953.84
2023-05-18T19:32:51.824Z,96964.25
2023-05-18T19:35:20.716Z,96992.72
2023-05-18T19:37:48.153Z,96984.59
2023-05-18T19:40:16.321Z,96991.81
2023-05-18T19:42:43.419Z,96997.25
2023-05-18T19:45:10.816Z,96997.41
2023-05-18T19:47:38.074Z,96986.34
2023-05-18T19:50:06.339Z,96982.78
2023-05-18T19:52:33.884Z,97014.38
2023-05-18T19:55:00.812Z,97012.69
2023-05-18T19:57:28.075Z,97004.56
2023-05-18T19:59:55.069Z,96998.97
2023-05-18T20:02:22.058Z,97008.16
2023-05-18T20:04:48.947Z,97011.44
2023-05-18T20:07:17.305Z,96992.28
2023-05-18T20:09:44.284Z,97001.47
2023-05-18T20:12:11.405Z,96993.72
2023-05-18T20:14:39.475Z,96980.47
2023-05-18T20:17:06.902Z,96982.78
2023-05-18T20:19:33.988Z,97007.53
2023-05-18T20:22:01.064Z,97014.38
2023-05-18T20:24:31.394Z,96984.22
2023-05-18T20:26:58.325Z,97018.16
2023-05-18T20:29:25.356Z,97009.72
2023-05-18T20:31:52.434Z,97005.66
2023-05-18T20:34:19.529Z,97013.78
2023-05-18T20:36:46.468Z,96985.09
2023-05-18T20:39:13.376Z,96997.09
2023-05-18T20:41:42.070Z,96989.94
2023-05-18T20:44:11.683Z,97024.78
2023-05-18T20:46:42.909Z,97001.13
2023-05-18T20:49:12.468Z,96995.38
2023-05-18T20:51:39.660Z,96983.50
2023-05-18T20:54:07.123Z,96962.91
2023-05-18T20:56:34.439Z,97018.88
2023-05-18T20:59:02.204Z,96992.22
2023-05-18T21:01:30.832Z,96992.84
2023-05-18T21:03:59.318Z,96993.31
2023-05-18T21:06:26.523Z,96991.00
2023-05-18T21:08:53.462Z,96980.41
2023-05-18T21:11:21.363Z,97019.00
2023-05-18T21:13:48.388Z,96990.53
2023-05-18T21:16:15.507Z,97015.72
2023-05-18T21:18:42.744Z,97015.56
2023-05-18T21:21:09.815Z,97011.91
2023-05-18T21:23:36.846Z,97013.31
2023-05-18T21:26:03.884Z,97017.25
2023-05-18T21:28:30.815Z,97016.00
2023-05-18T21:30:57.791Z,96991.69
2023-05-18T21:33:24.803Z,96993.25
2023-05-18T21:35:54.827Z,96998.66
2023-05-18T21:38:21.983Z,96953.66
2023-05-18T21:40:49.256Z,96997.16
2023-05-18T21:43:16.547Z,96988.56
2023-05-18T21:45:44.012Z,97015.41
2023-05-18T21:48:11.238Z,97003.56
2023-05-18T21:50:38.138Z,97011.97
2023-05-18T21:53:05.090Z,96997.19
2023-05-18T21:55:32.421Z,97021.94
2023-05-18T21:57:59.892Z,97004.06
2023-05-18T22:00:27.338Z,97003.06
2023-05-18T22:02:54.516Z,96997.25
2023-05-18T22:05:21.830Z,97016.06
2023-05-18T22:07:49.259Z,97001.28
2023-05-18T22:10:16.355Z,96992.03
2023-05-18T22:12:43.812Z,96994.56
2023-05-18T22:15:14.055Z,97011.09
2023-05-18T22:17:41.040Z,97013.69
2023-05-18T22:20:15.575Z,97016.06
2023-05-18T22:22:42.656Z,97008.34
2023-05-18T22:25:09.856Z,96983.84
2023-05-18T22:27:38.976Z,96984.66
2023-05-18T22:30:07.295Z,97014.09
2023-05-18T22:32:34.511Z,96999.13
2023-05-18T22:35:01.969Z,96994.03
2023-05-18T22:37:28.933Z,96984.94
2023-05-18T22:39:55.948Z,96986.53
2023-05-18T22:42:22.920Z,96993.13
2023-05-18T22:44:49.790Z,96995.59
2023-05-18T22:47:20.160Z,96972.69
2023-05-18T22:49:48.051Z,96973.75
2023-05-18T22:52:16.631Z,96994.34
2023-05-18T22:54:43.596Z,96991.97
2023-05-18T22:57:10.593Z,96987.78
2023-05-18T22:59:37.879Z,96986.69
2023-05-18T23:02:06.076Z,96959.41
2023-05-18T23:04:34.421Z,96991.03
2023-05-18T23:07:02.017Z,96990.13
2023-05-18T23:09:30.829Z,96990.72
2023-05-18T23:11:59.762Z,96995.38
2023-05-18T23:14:31.354Z,96958.78
2023-05-18T23:16:58.635Z,96980.94
2023-05-18T23:19:26.991Z,96964.53
2023-05-18T23:21:54.342Z,96968.78
2023-05-18T23:24:21.921Z,96944.50
2023-05-18T23:26:48.806Z,96973.91
2023-05-18T23:29:15.743Z,96976.56
2023-05-18T23:31:42.688Z,96970.47
2023-05-18T23:34:09.967Z,96975.16
2023-05-18T23:36:39.867Z,96961.13
2023-05-18T23:39:07.364Z,96981.03
2023-05-18T23:41:36.237Z,96972.97
2023-05-18T23:44:03.551Z,96944.84
2023-05-18T23:46:31.664Z,96957.16
2023-05-18T23:49:00.003Z,96943.91
2023-05-18T23:51:30.138Z,96965.47
2023-05-18T23:53:58.847Z,96959.50
2023-05-18T23:56:26.138Z,96954.53
2023-05-18T23:58:53.287Z,96929.72
